sensor_id;sensor_type;location;lat;lon;timestamp;P1;durP1;ratioP1;P2;durP2;ratioP2
43519;SDS011;46848;51.980;5.918;2023-03-01T00:02:00;5.07;;;2.37;;
43519;SDS011;46848;51.980;5.918;2023-03-01T00:04:26;4.80;;;2.37;;
43519;SDS011;46848;51.980;5.918;2023-03-01T00:06:52;4.50;;;2.30;;
43519;SDS011;46848;51.980;5.918;2023-03-01T00:09:18;3.67;;;2.07;;
43519;SDS011;46848;51.980;5.918;2023-03-01T00:11:44;4.30;;;2.33;;
43519;SDS011;46848;51.980;5.918;2023-03-01T00:14:10;4.53;;;2.77;;
43519;SDS011;46848;51.980;5.918;2023-03-01T00:16:37;6.03;;;3.13;;
43519;SDS011;46848;51.980;5.918;2023-03-01T00:19:05;4.17;;;2.63;;
43519;SDS011;46848;51.980;5.918;2023-03-01T00:21:32;5.63;;;2.60;;
43519;SDS011;46848;51.980;5.918;2023-03-01T00:24:00;4.70;;;2.60;;
43519;SDS011;46848;51.980;5.918;2023-03-01T00:26:26;5.07;;;2.27;;
43519;SDS011;46848;51.980;5.918;2023-03-01T00:28:53;4.67;;;2.43;;
43519;SDS011;46848;51.980;5.918;2023-03-01T00:31:22;4.47;;;2.43;;
43519;SDS011;46848;51.980;5.918;2023-03-01T00:33:52;4.80;;;2.40;;
43519;SDS011;46848;51.980;5.918;2023-03-01T00:36:22;5.13;;;2.33;;
43519;SDS011;46848;51.980;5.918;2023-03-01T00:38:50;4.73;;;2.33;;
43519;SDS011;46848;51.980;5.918;2023-03-01T00:41:17;4.20;;;2.30;;
43519;SDS011;46848;51.980;5.918;2023-03-01T00:43:43;4.67;;;2.57;;
43519;SDS011;46848;51.980;5.918;2023-03-01T00:46:11;4.13;;;2.33;;
43519;SDS011;46848;51.980;5.918;2023-03-01T00:48:41;4.47;;;2.38;;
43519;SDS011;46848;51.980;5.918;2023-03-01T00:53:45;4.60;;;2.63;;
43519;SDS011;46848;51.980;5.918;2023-03-01T00:56:30;6.10;;;2.90;;
43519;SDS011;46848;51.980;5.918;2023-03-01T00:58:56;5.77;;;2.83;;
43519;SDS011;46848;51.980;5.918;2023-03-01T01:01:23;5.83;;;2.80;;
43519;SDS011;46848;51.980;5.918;2023-03-01T01:03:57;7.20;;;2.77;;
43519;SDS011;46848;51.980;5.918;2023-03-01T01:06:31;5.53;;;2.63;;
43519;SDS011;46848;51.980;5.918;2023-03-01T01:09:00;4.93;;;2.37;;
43519;SDS011;46848;51.980;5.918;2023-03-01T01:11:27;5.60;;;2.80;;
43519;SDS011;46848;51.980;5.918;2023-03-01T01:13:54;6.33;;;3.17;;
43519;SDS011;46848;51.980;5.918;2023-03-01T01:16:21;5.80;;;3.13;;
43519;SDS011;46848;51.980;5.918;2023-03-01T01:18:47;5.90;;;3.00;;
43519;SDS011;46848;51.980;5.918;2023-03-01T01:21:16;5.17;;;2.67;;
43519;SDS011;46848;51.980;5.918;2023-03-01T01:23:44;5.80;;;3.33;;
43519;SDS011;46848;51.980;5.918;2023-03-01T01:26:11;5.70;;;3.30;;
43519;SDS011;46848;51.980;5.918;2023-03-01T01:28:39;5.53;;;3.40;;
43519;SDS011;46848;51.980;5.918;2023-03-01T01:31:05;7.07;;;3.50;;
43519;SDS011;46848;51.980;5.918;2023-03-01T01:33:31;6.30;;;3.80;;
43519;SDS011;46848;51.980;5.918;2023-03-01T01:35:57;6.23;;;3.00;;
43519;SDS011;46848;51.980;5.918;2023-03-01T01:38:23;5.90;;;3.50;;
43519;SDS011;46848;51.980;5.918;2023-03-01T01:40:49;6.20;;;3.90;;
43519;SDS011;46848;51.980;5.918;2023-03-01T01:43:22;7.70;;;4.60;;
43519;SDS011;46848;51.980;5.918;2023-03-01T01:45:49;6.23;;;3.53;;
43519;SDS011;46848;51.980;5.918;2023-03-01T01:48:17;7.60;;;3.80;;
43519;SDS011;46848;51.980;5.918;2023-03-01T01:50:45;8.80;;;4.33;;
43519;SDS011;46848;51.980;5.918;2023-03-01T01:53:21;7.00;;;4.43;;
43519;SDS011;46848;51.980;5.918;2023-03-01T01:55:49;7.20;;;3.60;;
43519;SDS011;46848;51.980;5.918;2023-03-01T01:58:21;7.37;;;3.77;;
43519;SDS011;46848;51.980;5.918;2023-03-01T02:00:49;7.47;;;4.10;;
43519;SDS011;46848;51.980;5.918;2023-03-01T02:03:17;7.73;;;4.40;;
43519;SDS011;46848;51.980;5.918;2023-03-01T02:06:31;7.23;;;4.03;;
43519;SDS011;46848;51.980;5.918;2023-03-01T02:08:44;6.97;;;4.20;;
43519;SDS011;46848;51.980;5.918;2023-03-01T02:11:12;7.23;;;3.93;;
43519;SDS011;46848;51.980;5.918;2023-03-01T02:13:42;5.97;;;4.17;;
43519;SDS011;46848;51.980;5.918;2023-03-01T02:16:08;7.37;;;3.63;;
43519;SDS011;46848;51.980;5.918;2023-03-01T02:18:35;6.23;;;3.90;;
43519;SDS011;46848;51.980;5.918;2023-03-01T02:21:08;7.23;;;3.93;;
43519;SDS011;46848;51.980;5.918;2023-03-01T02:23:36;7.67;;;3.70;;
43519;SDS011;46848;51.980;5.918;2023-03-01T02:26:06;9.07;;;4.30;;
43519;SDS011;46848;51.980;5.918;2023-03-01T02:28:40;8.03;;;4.60;;
43519;SDS011;46848;51.980;5.918;2023-03-01T02:31:08;6.57;;;4.10;;
43519;SDS011;46848;51.980;5.918;2023-03-01T02:33:53;5.97;;;3.80;;
43519;SDS011;46848;51.980;5.918;2023-03-01T02:36:28;7.13;;;4.03;;
43519;SDS011;46848;51.980;5.918;2023-03-01T02:38:59;6.73;;;4.33;;
43519;SDS011;46848;51.980;5.918;2023-03-01T02:41:28;7.57;;;4.13;;
43519;SDS011;46848;51.980;5.918;2023-03-01T02:44:00;8.00;;;4.10;;
43519;SDS011;46848;51.980;5.918;2023-03-01T02:46:26;6.57;;;4.37;;
43519;SDS011;46848;51.980;5.918;2023-03-01T02:48:52;7.87;;;4.30;;
43519;SDS011;46848;51.980;5.918;2023-03-01T02:53:50;7.93;;;4.10;;
43519;SDS011;46848;51.980;5.918;2023-03-01T02:56:24;5.70;;;3.70;;
43519;SDS011;46848;51.980;5.918;2023-03-01T02:58:50;5.33;;;3.70;;
43519;SDS011;46848;51.980;5.918;2023-03-01T03:01:18;6.70;;;3.93;;
43519;SDS011;46848;51.980;5.918;2023-03-01T03:03:44;7.43;;;4.00;;
43519;SDS011;46848;51.980;5.918;2023-03-01T03:06:10;6.10;;;3.50;;
43519;SDS011;46848;51.980;5.918;2023-03-01T03:08:35;5.87;;;3.53;;
43519;SDS011;46848;51.980;5.918;2023-03-01T03:11:01;6.40;;;3.70;;
43519;SDS011;46848;51.980;5.918;2023-03-01T03:13:27;6.27;;;3.83;;
43519;SDS011;46848;51.980;5.918;2023-03-01T03:15:54;5.63;;;3.50;;
43519;SDS011;46848;51.980;5.918;2023-03-01T03:18:21;8.03;;;3.93;;
43519;SDS011;46848;51.980;5.918;2023-03-01T03:20:48;6.60;;;3.63;;
43519;SDS011;46848;51.980;5.918;2023-03-01T03:23:17;5.73;;;2.90;;
43519;SDS011;46848;51.980;5.918;2023-03-01T03:25:44;7.07;;;3.70;;
43519;SDS011;46848;51.980;5.918;2023-03-01T03:28:12;5.53;;;3.43;;
43519;SDS011;46848;51.980;5.918;2023-03-01T03:30:38;6.10;;;3.73;;
43519;SDS011;46848;51.980;5.918;2023-03-01T03:33:05;6.33;;;3.73;;
43519;SDS011;46848;51.980;5.918;2023-03-01T03:35:33;5.77;;;3.70;;
43519;SDS011;46848;51.980;5.918;2023-03-01T03:38:04;7.50;;;4.00;;
43519;SDS011;46848;51.980;5.918;2023-03-01T03:40:40;6.93;;;4.17;;
43519;SDS011;46848;51.980;5.918;2023-03-01T03:43:11;6.43;;;3.40;;
43519;SDS011;46848;51.980;5.918;2023-03-01T03:45:41;5.73;;;3.40;;
43519;SDS011;46848;51.980;5.918;2023-03-01T03:48:08;5.93;;;3.23;;
43519;SDS011;46848;51.980;5.918;2023-03-01T03:50:35;6.77;;;3.40;;
43519;SDS011;46848;51.980;5.918;2023-03-01T03:53:01;6.17;;;3.37;;
43519;SDS011;46848;51.980;5.918;2023-03-01T03:55:28;6.20;;;3.33;;
43519;SDS011;46848;51.980;5.918;2023-03-01T03:57:56;6.23;;;3.83;;
43519;SDS011;46848;51.980;5.918;2023-03-01T04:00:27;4.75;;;3.30;;
43519;SDS011;46848;51.980;5.918;2023-03-01T04:02:52;5.70;;;3.70;;
43519;SDS011;46848;51.980;5.918;2023-03-01T04:05:21;5.20;;;2.97;;
43519;SDS011;46848;51.980;5.918;2023-03-01T04:07:48;5.13;;;3.27;;
43519;SDS011;46848;51.980;5.918;2023-03-01T04:10:15;8.00;;;3.77;;
43519;SDS011;46848;51.980;5.918;2023-03-01T04:12:42;6.30;;;3.47;;
43519;SDS011;46848;51.980;5.918;2023-03-01T04:15:08;6.83;;;3.60;;
43519;SDS011;46848;51.980;5.918;2023-03-01T04:17:42;6.80;;;3.57;;
43519;SDS011;46848;51.980;5.918;2023-03-01T04:20:10;5.63;;;3.30;;
43519;SDS011;46848;51.980;5.918;2023-03-01T04:22:42;6.80;;;3.87;;
43519;SDS011;46848;51.980;5.918;2023-03-01T04:25:12;6.77;;;3.47;;
43519;SDS011;46848;51.980;5.918;2023-03-01T04:27:39;6.37;;;3.43;;
43519;SDS011;46848;51.980;5.918;2023-03-01T04:30:05;6.80;;;3.60;;
43519;SDS011;46848;51.980;5.918;2023-03-01T04:32:32;7.63;;;4.07;;
43519;SDS011;46848;51.980;5.918;2023-03-01T04:34:59;6.87;;;3.90;;
43519;SDS011;46848;51.980;5.918;2023-03-01T04:37:25;6.17;;;3.20;;
43519;SDS011;46848;51.980;5.918;2023-03-01T04:39:51;7.57;;;4.00;;
43519;SDS011;46848;51.980;5.918;2023-03-01T04:42:17;6.27;;;3.40;;
43519;SDS011;46848;51.980;5.918;2023-03-01T04:44:43;5.97;;;3.30;;
43519;SDS011;46848;51.980;5.918;2023-03-01T04:47:09;4.73;;;3.03;;
43519;SDS011;46848;51.980;5.918;2023-03-01T04:49:36;5.50;;;3.37;;
43519;SDS011;46848;51.980;5.918;2023-03-01T04:52:01;5.73;;;3.20;;
43519;SDS011;46848;51.980;5.918;2023-03-01T04:54:28;5.77;;;3.13;;
43519;SDS011;46848;51.980;5.918;2023-03-01T04:56:54;8.30;;;3.27;;
43519;SDS011;46848;51.980;5.918;2023-03-01T04:59:20;5.57;;;3.00;;
43519;SDS011;46848;51.980;5.918;2023-03-01T05:01:51;5.67;;;3.50;;
43519;SDS011;46848;51.980;5.918;2023-03-01T05:04:22;6.55;;;3.42;;
43519;SDS011;46848;51.980;5.918;2023-03-01T05:06:57;6.70;;;3.13;;
43519;SDS011;46848;51.980;5.918;2023-03-01T05:09:23;5.47;;;3.00;;
43519;SDS011;46848;51.980;5.918;2023-03-01T05:11:49;4.80;;;2.70;;
43519;SDS011;46848;51.980;5.918;2023-03-01T05:14:16;6.47;;;3.07;;
43519;SDS011;46848;51.980;5.918;2023-03-01T05:16:42;7.13;;;3.10;;
43519;SDS011;46848;51.980;5.918;2023-03-01T05:19:07;5.53;;;2.93;;
43519;SDS011;46848;51.980;5.918;2023-03-01T05:21:47;7.97;;;3.20;;
43519;SDS011;46848;51.980;5.918;2023-03-01T05:24:33;5.38;;;3.10;;
43519;SDS011;46848;51.980;5.918;2023-03-01T05:27:01;6.40;;;3.60;;
43519;SDS011;46848;51.980;5.918;2023-03-01T05:29:28;6.57;;;3.50;;
43519;SDS011;46848;51.980;5.918;2023-03-01T05:31:56;6.83;;;3.63;;
43519;SDS011;46848;51.980;5.918;2023-03-01T05:34:27;5.97;;;2.90;;
43519;SDS011;46848;51.980;5.918;2023-03-01T05:36:54;5.30;;;2.78;;
43519;SDS011;46848;51.980;5.918;2023-03-01T05:39:21;6.37;;;3.47;;
43519;SDS011;46848;51.980;5.918;2023-03-01T05:41:52;8.23;;;3.57;;
43519;SDS011;46848;51.980;5.918;2023-03-01T05:44:22;6.53;;;3.30;;
43519;SDS011;46848;51.980;5.918;2023-03-01T05:46:48;8.00;;;3.20;;
43519;SDS011;46848;51.980;5.918;2023-03-01T05:49:15;5.67;;;2.67;;
43519;SDS011;46848;51.980;5.918;2023-03-01T05:51:41;6.53;;;3.93;;
43519;SDS011;46848;51.980;5.918;2023-03-01T05:54:08;6.33;;;4.00;;
43519;SDS011;46848;51.980;5.918;2023-03-01T05:56:35;5.57;;;3.50;;
43519;SDS011;46848;51.980;5.918;2023-03-01T05:59:02;5.13;;;3.10;;
43519;SDS011;46848;51.980;5.918;2023-03-01T06:01:29;5.83;;;3.43;;
43519;SDS011;46848;51.980;5.918;2023-03-01T06:03:55;4.90;;;2.87;;
43519;SDS011;46848;51.980;5.918;2023-03-01T06:06:21;5.40;;;3.07;;
43519;SDS011;46848;51.980;5.918;2023-03-01T06:08:47;6.23;;;3.60;;
43519;SDS011;46848;51.980;5.918;2023-03-01T06:11:13;6.40;;;3.50;;
43519;SDS011;46848;51.980;5.918;2023-03-01T06:13:39;8.63;;;4.23;;
43519;SDS011;46848;51.980;5.918;2023-03-01T06:16:06;8.67;;;4.07;;
43519;SDS011;46848;51.980;5.918;2023-03-01T06:18:32;7.07;;;3.60;;
43519;SDS011;46848;51.980;5.918;2023-03-01T06:21:00;7.63;;;3.93;;
43519;SDS011;46848;51.980;5.918;2023-03-01T06:23:25;7.47;;;3.90;;
43519;SDS011;46848;51.980;5.918;2023-03-01T06:25:51;6.63;;;3.87;;
43519;SDS011;46848;51.980;5.918;2023-03-01T06:28:17;7.30;;;3.70;;
43519;SDS011;46848;51.980;5.918;2023-03-01T06:30:43;5.13;;;3.17;;
43519;SDS011;46848;51.980;5.918;2023-03-01T06:33:09;5.53;;;3.50;;
43519;SDS011;46848;51.980;5.918;2023-03-01T06:35:34;5.83;;;3.50;;
43519;SDS011;46848;51.980;5.918;2023-03-01T06:38:01;6.00;;;3.60;;
43519;SDS011;46848;51.980;5.918;2023-03-01T06:40:28;6.30;;;3.60;;
43519;SDS011;46848;51.980;5.918;2023-03-01T06:42:56;7.10;;;3.80;;
43519;SDS011;46848;51.980;5.918;2023-03-01T06:45:22;7.13;;;3.87;;
43519;SDS011;46848;51.980;5.918;2023-03-01T06:47:48;7.43;;;3.80;;
43519;SDS011;46848;51.980;5.918;2023-03-01T06:50:14;8.80;;;4.63;;
43519;SDS011;46848;51.980;5.918;2023-03-01T06:52:41;7.87;;;3.90;;
43519;SDS011;46848;51.980;5.918;2023-03-01T06:55:08;6.43;;;3.80;;
43519;SDS011;46848;51.980;5.918;2023-03-01T06:57:34;9.10;;;4.80;;
43519;SDS011;46848;51.980;5.918;2023-03-01T07:00:00;8.07;;;5.13;;
43519;SDS011;46848;51.980;5.918;2023-03-01T07:02:26;6.70;;;3.73;;
43519;SDS011;46848;51.980;5.918;2023-03-01T07:04:51;6.03;;;3.60;;
43519;SDS011;46848;51.980;5.918;2023-03-01T07:07:20;6.77;;;3.90;;
43519;SDS011;46848;51.980;5.918;2023-03-01T07:09:46;6.43;;;3.87;;
43519;SDS011;46848;51.980;5.918;2023-03-01T07:12:13;7.27;;;3.47;;
43519;SDS011;46848;51.980;5.918;2023-03-01T07:14:39;5.53;;;3.30;;
43519;SDS011;46848;51.980;5.918;2023-03-01T07:17:05;6.77;;;3.47;;
43519;SDS011;46848;51.980;5.918;2023-03-01T07:19:31;6.23;;;3.40;;
43519;SDS011;46848;51.980;5.918;2023-03-01T07:21:59;7.10;;;3.60;;
43519;SDS011;46848;51.980;5.918;2023-03-01T07:24:35;6.03;;;2.60;;
43519;SDS011;46848;51.980;5.918;2023-03-01T07:27:00;4.73;;;2.60;;
43519;SDS011;46848;51.980;5.918;2023-03-01T07:29:26;5.80;;;3.33;;
43519;SDS011;46848;51.980;5.918;2023-03-01T07:31:53;5.50;;;2.93;;
43519;SDS011;46848;51.980;5.918;2023-03-01T07:34:19;7.27;;;3.50;;
43519;SDS011;46848;51.980;5.918;2023-03-01T07:36:45;6.90;;;3.43;;
43519;SDS011;46848;51.980;5.918;2023-03-01T07:39:11;5.13;;;3.03;;
43519;SDS011;46848;51.980;5.918;2023-03-01T07:41:36;6.80;;;3.20;;
43519;SDS011;46848;51.980;5.918;2023-03-01T07:44:02;5.00;;;3.00;;
43519;SDS011;46848;51.980;5.918;2023-03-01T07:46:29;6.07;;;3.47;;
43519;SDS011;46848;51.980;5.918;2023-03-01T07:48:56;6.70;;;3.47;;
43519;SDS011;46848;51.980;5.918;2023-03-01T07:51:22;9.40;;;3.87;;
43519;SDS011;46848;51.980;5.918;2023-03-01T07:53:48;6.90;;;3.90;;
43519;SDS011;46848;51.980;5.918;2023-03-01T07:56:14;6.53;;;3.70;;
43519;SDS011;46848;51.980;5.918;2023-03-01T07:58:45;7.00;;;3.63;;
43519;SDS011;46848;51.980;5.918;2023-03-01T08:01:13;5.80;;;3.47;;
43519;SDS011;46848;51.980;5.918;2023-03-01T08:03:45;8.67;;;3.70;;
43519;SDS011;46848;51.980;5.918;2023-03-01T08:06:33;5.50;;;3.38;;
43519;SDS011;46848;51.980;5.918;2023-03-01T08:09:04;9.00;;;3.93;;
43519;SDS011;46848;51.980;5.918;2023-03-01T08:11:30;5.00;;;3.43;;
43519;SDS011;46848;51.980;5.918;2023-03-01T08:13:56;6.10;;;3.97;;
43519;SDS011;46848;51.980;5.918;2023-03-01T08:16:22;7.77;;;3.77;;
43519;SDS011;46848;51.980;5.918;2023-03-01T08:18:49;6.63;;;4.20;;
43519;SDS011;46848;51.980;5.918;2023-03-01T08:21:16;6.93;;;3.47;;
43519;SDS011;46848;51.980;5.918;2023-03-01T08:23:42;6.07;;;3.60;;
43519;SDS011;46848;51.980;5.918;2023-03-01T08:26:10;5.07;;;3.43;;
43519;SDS011;46848;51.980;5.918;2023-03-01T08:28:37;7.67;;;3.87;;
43519;SDS011;46848;51.980;5.918;2023-03-01T08:31:03;6.53;;;4.10;;
43519;SDS011;46848;51.980;5.918;2023-03-01T08:33:49;6.33;;;3.43;;
43519;SDS011;46848;51.980;5.918;2023-03-01T08:36:20;6.07;;;3.30;;
43519;SDS011;46848;51.980;5.918;2023-03-01T08:38:50;7.20;;;3.85;;
43519;SDS011;46848;51.980;5.918;2023-03-01T08:41:16;7.57;;;3.90;;
43519;SDS011;46848;51.980;5.918;2023-03-01T08:43:42;7.05;;;3.92;;
43519;SDS011;46848;51.980;5.918;2023-03-01T08:46:08;7.00;;;4.10;;
43519;SDS011;46848;51.980;5.918;2023-03-01T08:48:34;6.65;;;3.50;;
43519;SDS011;46848;51.980;5.918;2023-03-01T08:53:41;7.53;;;3.67;;
43519;SDS011;46848;51.980;5.918;2023-03-01T08:56:08;8.85;;;3.78;;
43519;SDS011;46848;51.980;5.918;2023-03-01T08:58:34;7.07;;;3.28;;
43519;SDS011;46848;51.980;5.918;2023-03-01T09:01:00;8.05;;;3.78;;
43519;SDS011;46848;51.980;5.918;2023-03-01T09:03:28;6.40;;;3.33;;
43519;SDS011;46848;51.980;5.918;2023-03-01T09:05:59;6.32;;;3.17;;
43519;SDS011;46848;51.980;5.918;2023-03-01T09:08:26;5.38;;;3.58;;
43519;SDS011;46848;51.980;5.918;2023-03-01T09:10:55;8.07;;;3.60;;
43519;SDS011;46848;51.980;5.918;2023-03-01T09:13:21;5.13;;;3.10;;
43519;SDS011;46848;51.980;5.918;2023-03-01T09:15:50;7.30;;;2.95;;
43519;SDS011;46848;51.980;5.918;2023-03-01T09:18:16;7.07;;;3.50;;
43519;SDS011;46848;51.980;5.918;2023-03-01T09:21:03;6.40;;;3.15;;
43519;SDS011;46848;51.980;5.918;2023-03-01T09:23:34;7.22;;;3.50;;
43519;SDS011;46848;51.980;5.918;2023-03-01T09:26:01;6.25;;;3.67;;
43519;SDS011;46848;51.980;5.918;2023-03-01T09:28:28;6.82;;;3.30;;
43519;SDS011;46848;51.980;5.918;2023-03-01T09:30:53;5.35;;;3.40;;
43519;SDS011;46848;51.980;5.918;2023-03-01T09:33:24;6.68;;;3.60;;
43519;SDS011;46848;51.980;5.918;2023-03-01T09:36:02;4.97;;;3.05;;
43519;SDS011;46848;51.980;5.918;2023-03-01T09:38:32;5.47;;;2.97;;
43519;SDS011;46848;51.980;5.918;2023-03-01T09:41:00;4.63;;;2.90;;
43519;SDS011;46848;51.980;5.918;2023-03-01T09:43:40;6.43;;;3.60;;
43519;SDS011;46848;51.980;5.918;2023-03-01T09:46:13;7.53;;;3.72;;
43519;SDS011;46848;51.980;5.918;2023-03-01T09:48:59;9.75;;;5.13;;
43519;SDS011;46848;51.980;5.918;2023-03-01T09:51:33;7.38;;;4.60;;
43519;SDS011;46848;51.980;5.918;2023-03-01T09:56:46;7.25;;;4.57;;
43519;SDS011;46848;51.980;5.918;2023-03-01T10:08:14;6.40;;;4.60;;
43519;SDS011;46848;51.980;5.918;2023-03-01T10:10:47;8.73;;;5.15;;
43519;SDS011;46848;51.980;5.918;2023-03-01T10:13:22;7.55;;;5.82;;
43519;SDS011;46848;51.980;5.918;2023-03-01T10:16:17;9.20;;;5.40;;
43519;SDS011;46848;51.980;5.918;2023-03-01T10:18:52;7.63;;;4.70;;
43519;SDS011;46848;51.980;5.918;2023-03-01T10:21:21;5.93;;;4.53;;
43519;SDS011;46848;51.980;5.918;2023-03-01T10:23:49;6.35;;;4.13;;
43519;SDS011;46848;51.980;5.918;2023-03-01T10:26:31;5.90;;;3.97;;
43519;SDS011;46848;51.980;5.918;2023-03-01T10:29:11;7.68;;;3.95;;
43519;SDS011;46848;51.980;5.918;2023-03-01T10:31:39;7.07;;;4.20;;
43519;SDS011;46848;51.980;5.918;2023-03-01T10:34:19;5.80;;;3.60;;
43519;SDS011;46848;51.980;5.918;2023-03-01T10:36:56;5.55;;;3.35;;
43519;SDS011;46848;51.980;5.918;2023-03-01T10:39:26;5.40;;;3.17;;
43519;SDS011;46848;51.980;5.918;2023-03-01T10:41:55;5.38;;;3.45;;
43519;SDS011;46848;51.980;5.918;2023-03-01T10:44:40;4.30;;;2.93;;
43519;SDS011;46848;51.980;5.918;2023-03-01T10:47:29;5.15;;;3.50;;
43519;SDS011;46848;51.980;5.918;2023-03-01T10:50:05;5.68;;;3.30;;
43519;SDS011;46848;51.980;5.918;2023-03-01T10:53:03;9.20;;;3.55;;
43519;SDS011;46848;51.980;5.918;2023-03-01T10:58:18;7.35;;;4.00;;
43519;SDS011;46848;51.980;5.918;2023-03-01T11:00:52;6.28;;;3.60;;
43519;SDS011;46848;51.980;5.918;2023-03-01T11:03:21;8.43;;;3.55;;
43519;SDS011;46848;51.980;5.918;2023-03-01T11:08:31;6.28;;;3.58;;
43519;SDS011;46848;51.980;5.918;2023-03-01T11:13:50;5.47;;;3.53;;
43519;SDS011;46848;51.980;5.918;2023-03-01T11:16:38;4.88;;;2.85;;
43519;SDS011;46848;51.980;5.918;2023-03-01T11:21:36;5.97;;;3.42;;
43519;SDS011;46848;51.980;5.918;2023-03-01T11:24:13;5.90;;;3.30;;
43519;SDS011;46848;51.980;5.918;2023-03-01T11:26:41;5.43;;;3.20;;
43519;SDS011;46848;51.980;5.918;2023-03-01T11:29:21;4.28;;;2.80;;
43519;SDS011;46848;51.980;5.918;2023-03-01T11:32:06;7.03;;;3.65;;
43519;SDS011;46848;51.980;5.918;2023-03-01T11:37:12;5.25;;;3.53;;
43519;SDS011;46848;51.980;5.918;2023-03-01T11:39:53;6.35;;;3.95;;
43519;SDS011;46848;51.980;5.918;2023-03-01T11:42:35;8.63;;;3.83;;
43519;SDS011;46848;51.980;5.918;2023-03-01T11:45:08;6.75;;;3.92;;
43519;SDS011;46848;51.980;5.918;2023-03-01T11:47:55;6.45;;;3.90;;
43519;SDS011;46848;51.980;5.918;2023-03-01T11:59:06;9.13;;;4.28;;
43519;SDS011;46848;51.980;5.918;2023-03-01T12:02:02;7.78;;;3.92;;
43519;SDS011;46848;51.980;5.918;2023-03-01T12:15:47;5.22;;;3.30;;
43519;SDS011;46848;51.980;5.918;2023-03-01T12:26:47;6.72;;;3.33;;
43519;SDS011;46848;51.980;5.918;2023-03-01T12:29:44;4.50;;;2.75;;
43519;SDS011;46848;51.980;5.918;2023-03-01T12:33:15;5.60;;;3.30;;
43519;SDS011;46848;51.980;5.918;2023-03-01T12:35:51;6.10;;;3.65;;
43519;SDS011;46848;51.980;5.918;2023-03-01T12:38:50;7.43;;;3.28;;
43519;SDS011;46848;51.980;5.918;2023-03-01T12:47:02;5.05;;;3.10;;
43519;SDS011;46848;51.980;5.918;2023-03-01T12:49:51;6.60;;;3.63;;
43519;SDS011;46848;51.980;5.918;2023-03-01T12:52:33;6.35;;;3.25;;
43519;SDS011;46848;51.980;5.918;2023-03-01T12:55:18;7.95;;;3.33;;
43519;SDS011;46848;51.980;5.918;2023-03-01T12:57:59;6.53;;;2.80;;
43519;SDS011;46848;51.980;5.918;2023-03-01T13:00:31;6.47;;;3.10;;
43519;SDS011;46848;51.980;5.918;2023-03-01T13:03:16;4.93;;;3.00;;
43519;SDS011;46848;51.980;5.918;2023-03-01T13:08:39;5.57;;;3.40;;
43519;SDS011;46848;51.980;5.918;2023-03-01T13:11:18;4.35;;;2.70;;
43519;SDS011;46848;51.980;5.918;2023-03-01T13:13:46;6.90;;;3.20;;
43519;SDS011;46848;51.980;5.918;2023-03-01T13:21:57;4.57;;;2.75;;
43519;SDS011;46848;51.980;5.918;2023-03-01T13:24:40;5.65;;;3.33;;
43519;SDS011;46848;51.980;5.918;2023-03-01T13:27:38;5.55;;;3.10;;
43519;SDS011;46848;51.980;5.918;2023-03-01T13:30:04;4.72;;;2.78;;
43519;SDS011;46848;51.980;5.918;2023-03-01T13:32:49;4.55;;;2.83;;
43519;SDS011;46848;51.980;5.918;2023-03-01T13:41:14;5.68;;;3.03;;
43519;SDS011;46848;51.980;5.918;2023-03-01T13:44:00;4.47;;;2.85;;
43519;SDS011;46848;51.980;5.918;2023-03-01T13:46:36;4.68;;;2.90;;
43519;SDS011;46848;51.980;5.918;2023-03-01T13:49:03;5.50;;;3.28;;
43519;SDS011;46848;51.980;5.918;2023-03-01T13:51:32;5.40;;;3.13;;
43519;SDS011;46848;51.980;5.918;2023-03-01T13:54:01;4.82;;;2.80;;
43519;SDS011;46848;51.980;5.918;2023-03-01T13:56:42;5.10;;;2.80;;
43519;SDS011;46848;51.980;5.918;2023-03-01T13:59:13;5.35;;;2.97;;
43519;SDS011;46848;51.980;5.918;2023-03-01T14:01:44;6.43;;;2.78;;
43519;SDS011;46848;51.980;5.918;2023-03-01T14:04:28;6.80;;;3.70;;
43519;SDS011;46848;51.980;5.918;2023-03-01T14:09:38;6.43;;;2.80;;
43519;SDS011;46848;51.980;5.918;2023-03-01T14:12:16;5.10;;;2.90;;
43519;SDS011;46848;51.980;5.918;2023-03-01T14:20:32;5.22;;;3.22;;
43519;SDS011;46848;51.980;5.918;2023-03-01T14:23:13;8.90;;;3.63;;
43519;SDS011;46848;51.980;5.918;2023-03-01T14:25:46;4.47;;;2.72;;
43519;SDS011;46848;51.980;5.918;2023-03-01T14:28:15;4.55;;;2.92;;
43519;SDS011;46848;51.980;5.918;2023-03-01T14:30:50;5.57;;;3.08;;
43519;SDS011;46848;51.980;5.918;2023-03-01T14:33:30;5.65;;;2.95;;
43519;SDS011;46848;51.980;5.918;2023-03-01T14:36:08;6.43;;;3.17;;
43519;SDS011;46848;51.980;5.918;2023-03-01T14:38:37;7.22;;;3.10;;
43519;SDS011;46848;51.980;5.918;2023-03-01T14:41:11;6.90;;;3.25;;
43519;SDS011;46848;51.980;5.918;2023-03-01T14:43:41;5.80;;;3.67;;
43519;SDS011;46848;51.980;5.918;2023-03-01T14:51:41;5.32;;;3.05;;
43519;SDS011;46848;51.980;5.918;2023-03-01T14:54:23;5.88;;;2.78;;
43519;SDS011;46848;51.980;5.918;2023-03-01T14:56:57;5.72;;;3.20;;
43519;SDS011;46848;51.980;5.918;2023-03-01T14:59:24;4.95;;;3.20;;
43519;SDS011;46848;51.980;5.918;2023-03-01T15:01:51;5.18;;;2.70;;
43519;SDS011;46848;51.980;5.918;2023-03-01T15:04:19;5.45;;;3.05;;
43519;SDS011;46848;51.980;5.918;2023-03-01T15:06:47;7.00;;;3.50;;
43519;SDS011;46848;51.980;5.918;2023-03-01T15:09:16;6.22;;;3.47;;
43519;SDS011;46848;51.980;5.918;2023-03-01T15:11:43;7.05;;;3.45;;
43519;SDS011;46848;51.980;5.918;2023-03-01T15:17:35;6.30;;;2.78;;
43519;SDS011;46848;51.980;5.918;2023-03-01T15:20:07;4.72;;;2.90;;
43519;SDS011;46848;51.980;5.918;2023-03-01T15:22:46;7.38;;;3.25;;
43519;SDS011;46848;51.980;5.918;2023-03-01T15:25:19;6.47;;;3.10;;
43519;SDS011;46848;51.980;5.918;2023-03-01T15:27:48;5.25;;;3.10;;
43519;SDS011;46848;51.980;5.918;2023-03-01T15:30:27;6.30;;;2.70;;
43519;SDS011;46848;51.980;5.918;2023-03-01T15:33:18;6.37;;;2.93;;
43519;SDS011;46848;51.980;5.918;2023-03-01T15:35:46;4.95;;;2.78;;
43519;SDS011;46848;51.980;5.918;2023-03-01T15:38:27;4.47;;;2.40;;
43519;SDS011;46848;51.980;5.918;2023-03-01T15:41:21;5.50;;;2.42;;
43519;SDS011;46848;51.980;5.918;2023-03-01T15:44:32;6.33;;;2.70;;
43519;SDS011;46848;51.980;5.918;2023-03-01T15:47:27;5.07;;;2.57;;
43519;SDS011;46848;51.980;5.918;2023-03-01T15:49:58;4.45;;;2.63;;
43519;SDS011;46848;51.980;5.918;2023-03-01T15:52:48;4.80;;;2.20;;
43519;SDS011;46848;51.980;5.918;2023-03-01T15:55:29;4.20;;;2.23;;
43519;SDS011;46848;51.980;5.918;2023-03-01T15:58:09;4.57;;;2.30;;
43519;SDS011;46848;51.980;5.918;2023-03-01T16:00:40;5.17;;;2.63;;
43519;SDS011;46848;51.980;5.918;2023-03-01T16:03:15;4.63;;;2.47;;
43519;SDS011;46848;51.980;5.918;2023-03-01T16:05:50;5.77;;;2.63;;
43519;SDS011;46848;51.980;5.918;2023-03-01T16:08:16;5.77;;;2.80;;
43519;SDS011;46848;51.980;5.918;2023-03-01T16:10:54;6.23;;;3.07;;
43519;SDS011;46848;51.980;5.918;2023-03-01T16:13:19;5.18;;;2.72;;
43519;SDS011;46848;51.980;5.918;2023-03-01T16:15:45;5.80;;;3.00;;
43519;SDS011;46848;51.980;5.918;2023-03-01T16:18:13;5.27;;;2.87;;
43519;SDS011;46848;51.980;5.918;2023-03-01T16:20:40;6.53;;;3.03;;
43519;SDS011;46848;51.980;5.918;2023-03-01T16:23:07;4.80;;;2.80;;
43519;SDS011;46848;51.980;5.918;2023-03-01T16:25:36;5.73;;;2.73;;
43519;SDS011;46848;51.980;5.918;2023-03-01T16:28:08;4.87;;;2.67;;
43519;SDS011;46848;51.980;5.918;2023-03-01T16:30:35;7.43;;;2.93;;
43519;SDS011;46848;51.980;5.918;2023-03-01T16:33:04;6.47;;;2.40;;
43519;SDS011;46848;51.980;5.918;2023-03-01T16:36:11;5.70;;;2.80;;
43519;SDS011;46848;51.980;5.918;2023-03-01T16:38:39;5.13;;;2.53;;
43519;SDS011;46848;51.980;5.918;2023-03-01T16:41:05;5.43;;;2.50;;
43519;SDS011;46848;51.980;5.918;2023-03-01T16:43:36;8.00;;;3.10;;
43519;SDS011;46848;51.980;5.918;2023-03-01T16:46:01;4.60;;;2.67;;
43519;SDS011;46848;51.980;5.918;2023-03-01T16:48:36;6.07;;;2.63;;
43519;SDS011;46848;51.980;5.918;2023-03-01T16:51:02;5.83;;;2.60;;